Time;durP1;ratioP1;P1;durP2;ratioP2;P2;SDS_P1;SDS_P2;PMS_P1;PMS_P2;Temp;Humidity;BMP_temperature;BMP_pressure;BME280_temperature;BME280_humidity;BME280_pressure;Samples;Min_cycle;Max_cycle;Signal;HPM_P1;HPM_P2
2022/09/20 00:01:27;;;;;;;7.80;6.00;;;;;;;7.56;100.00;96368.77;108232;1268;25376;-81
2022/09/20 00:04:00;;;;;;;7.30;6.50;;;;;;;7.59;100.00;96369.98;108247;1268;22676;-81
2022/09/20 00:06:33;;;;;;;8.20;6.70;;;;;;;7.60;100.00;96370.73;108238;1268;22551;-81
2022/09/20 00:09:05;;;;;;;11.30;8.10;;;;;;;7.63;100.00;96366.15;108051;1268;23700;-81
2022/09/20 00:11:37;;;;;;;10.80;8.20;;;;;;;7.66;100.00;96361.13;108030;1271;22668;-81
2022/09/20 00:14:09;;;;;;;10.90;8.70;;;;;;;7.70;100.00;96365.39;108082;1271;22586;-81
2022/09/20 00:16:42;;;;;;;10.10;8.40;;;;;;;7.72;100.00;96368.44;108067;1270;24055;-81
2022/09/20 00:19:21;;;;;;;9.00;7.90;;;;;;;7.75;100.00;96371.25;108018;1269;28330;-81
2022/09/20 00:21:52;;;;;;;10.60;8.90;;;;;;;7.78;100.00;96368.88;108100;1271;22559;-81
2022/09/20 00:24:26;;;;;;;12.10;10.30;;;;;;;7.81;100.00;96371.30;108082;1271;24290;-81
2022/09/20 00:26:57;;;;;;;9.80;8.60;;;;;;;7.82;100.00;96365.06;108069;1271;23915;-81
2022/09/20 00:29:28;;;;;;;12.10;9.50;;;;;;;7.84;100.00;96369.12;108049;1268;32398;-81
2022/09/20 00:32:00;;;;;;;10.90;9.20;;;;;;;7.86;100.00;96372.86;108046;1271;22555;-81
2022/09/20 00:37:25;;;;;;;10.80;9.20;;;;;;;7.89;100.00;96375.05;107975;1271;24366;-81
2022/09/20 00:39:57;;;;;;;10.50;9.20;;;;;;;7.89;100.00;96372.19;108065;1265;31433;-81
2022/09/20 00:42:30;;;;;;;9.70;8.70;;;;;;;7.90;100.00;96381.64;108081;1271;22715;-81
2022/09/20 00:45:05;;;;;;;8.50;6.50;;;;;;;7.90;100.00;96383.39;108085;1271;22561;-81
2022/09/20 00:47:42;;;;;;;7.00;6.20;;;;;;;7.86;100.00;96382.67;108150;1268;22663;-81
2022/09/20 00:50:33;;;;;;;7.00;6.00;;;;;;;7.84;100.00;96385.85;108066;1268;30499;-81
2022/09/20 00:53:09;;;;;;;10.50;7.50;;;;;;;7.83;100.00;96387.91;108156;1268;22647;-81
2022/09/20 00:55:46;;;;;;;7.90;7.10;;;;;;;7.83;100.00;96383.21;108146;1268;22808;-81
2022/09/20 00:58:19;;;;;;;10.80;8.60;;;;;;;7.85;100.00;96387.38;108065;1271;22536;-81
2022/09/20 01:00:52;;;;;;;11.70;9.10;;;;;;;7.88;100.00;96386.22;108136;1268;22532;-81
2022/09/20 01:03:27;;;;;;;11.10;9.50;;;;;;;7.94;100.00;96384.37;108154;1268;22529;-81
2022/09/20 01:06:00;;;;;;;12.60;10.50;;;;;;;7.99;100.00;96384.83;108087;1271;22698;-81
2022/09/20 01:08:32;;;;;;;11.00;9.80;;;;;;;8.02;100.00;96378.39;107944;1271;37095;-81
2022/09/20 01:11:03;;;;;;;12.00;8.50;;;;;;;8.05;100.00;96375.06;108147;1268;22535;-81
2022/09/20 01:13:34;;;;;;;11.10;9.20;;;;;;;8.08;100.00;96371.67;108147;1266;22551;-81
2022/09/20 01:16:08;;;;;;;11.10;9.00;;;;;;;8.10;100.00;96373.45;108124;1270;22641;-81
2022/09/20 01:18:41;;;;;;;11.80;9.50;;;;;;;8.09;100.00;96378.80;108057;1268;35314;-80
2022/09/20 01:21:13;;;;;;;9.80;7.50;;;;;;;8.07;100.00;96373.64;108242;1268;22533;-81
2022/09/20 01:23:56;;;;;;;13.30;11.00;;;;;;;8.06;100.00;96374.00;108209;1268;22679;-81
2022/09/20 01:26:49;;;;;;;10.50;9.40;;;;;;;8.05;100.00;96376.17;108223;1268;22530;-81
2022/09/20 01:29:37;;;;;;;12.40;10.80;;;;;;;8.06;100.00;96374.48;108131;1268;24028;-80
2022/09/20 01:32:12;;;;;;;11.00;9.80;;;;;;;8.07;100.00;96378.48;108228;1268;22538;-81
2022/09/20 01:34:49;;;;;;;10.70;7.70;;;;;;;8.07;100.00;96378.13;108239;1268;24341;-81
2022/09/20 01:37:26;;;;;;;10.90;8.90;;;;;;;8.06;100.00;96373.95;108168;1268;22862;-80
2022/09/20 01:40:09;;;;;;;9.70;8.70;;;;;;;8.07;100.00;96377.39;108142;1268;24245;-80
2022/09/20 01:42:48;;;;;;;10.50;9.40;;;;;;;8.06;100.00;96373.10;107944;1268;459303;-81
2022/09/20 01:45:27;;;;;;;11.50;9.70;;;;;;;8.04;100.00;96371.63;108272;1268;22520;-80
2022/09/20 01:48:09;;;;;;;10.90;9.00;;;;;;;8.03;100.00;96372.69;108146;1268;22585;-80
2022/09/20 01:50:54;;;;;;;10.40;8.80;;;;;;;8.03;100.00;96375.81;108180;1267;32741;-80
2022/09/20 01:54:01;;;;;;;9.50;8.30;;;;;;;8.03;100.00;96380.77;108241;1268;22869;-81
2022/09/20 01:56:58;;;;;;;9.60;7.10;;;;;;;8.04;100.00;96382.94;108176;1268;22758;-80
2022/09/20 02:00:04;;;;;;;9.50;8.20;;;;;;;8.03;100.00;96379.98;108112;1268;31500;-81
2022/09/20 02:03:11;;;;;;;8.70;7.30;;;;;;;8.02;100.00;96379.55;108003;1268;22540;-80
2022/09/20 02:06:08;;;;;;;8.60;7.20;;;;;;;8.02;100.00;96379.70;108170;1268;24281;-80
2022/09/20 02:08:59;;;;;;;8.70;7.50;;;;;;;8.02;100.00;96374.64;108128;1268;30124;-80
2022/09/20 02:11:44;;;;;;;8.30;7.10;;;;;;;8.04;100.00;96374.70;108219;1268;22523;-80
2022/09/20 02:14:40;;;;;;;8.00;7.20;;;;;;;8.05;100.00;96381.56;108210;1268;22689;-80
2022/09/20 02:17:20;;;;;;;8.20;6.40;;;;;;;8.03;100.00;96379.92;108282;1268;22549;-80
2022/09/20 02:20:20;;;;;;;7.20;6.40;;;;;;;8.03;100.00;96380.56;108121;1268;31970;-80
2022/09/20 02:23:08;;;;;;;10.40;9.30;;;;;;;8.07;100.00;96383.35;108205;1267;22553;-80
2022/09/20 02:25:53;;;;;;;9.90;8.10;;;;;;;8.11;100.00;96381.74;108198;1268;22609;-80
2022/09/20 02:28:43;;;;;;;12.30;10.90;;;;;;;8.14;100.00;96379.04;108140;1268;35807;-80
2022/09/20 02:31:23;;;;;;;11.70;9.70;;;;;;;8.16;100.00;96383.20;108289;1268;22730;-81
2022/09/20 02:34:16;;;;;;;11.10;9.90;;;;;;;8.17;100.00;96383.27;108214;1268;22569;-81
2022/09/20 02:37:02;;;;;;;10.00;8.10;;;;;;;8.17;100.00;96383.06;108190;1268;23899;-81
2022/09/20 02:39:45;;;;;;;9.70;8.70;;;;;;;8.18;100.00;96390.94;108081;1268;30890;-80
2022/09/20 02:42:21;;;;;;;11.40;10.20;;;;;;;8.18;100.00;96390.20;108066;1270;24074;-81
2022/09/20 02:45:04;;;;;;;9.50;8.20;;;;;;;8.17;100.00;96395.59;108173;1270;23446;-80
2022/09/20 02:47:40;;;;;;;10.40;8.60;;;;;;;8.17;100.00;96399.54;108103;1270;24208;-81
2022/09/20 02:50:26;;;;;;;10.10;9.00;;;;;;;8.17;100.00;96398.70;108098;1268;35146;-80
2022/09/20 02:53:11;;;;;;;10.30;9.20;;;;;;;8.17;100.00;96400.55;108094;1270;22570;-81
2022/09/20 02:55:54;;;;;;;10.30;9.20;;;;;;;8.16;100.00;96403.27;108071;1270;22532;-81
2022/09/20 02:58:36;;;;;;;9.60;8.50;;;;;;;8.16;100.00;96401.06;108060;1268;28310;-80
2022/09/20 03:01:22;;;;;;;10.80;9.60;;;;;;;8.17;100.00;96403.18;108132;1268;25261;-80
2022/09/20 03:04:02;;;;;;;11.10;10.00;;;;;;;8.18;100.00;96404.08;108175;1268;22536;-81
2022/09/20 03:06:42;;;;;;;8.70;7.00;;;;;;;8.17;100.00;96402.71;108120;1268;24234;-81
2022/09/20 03:09:22;;;;;;;12.40;10.10;;;;;;;8.17;100.00;96401.77;108043;1270;25032;-81
2022/09/20 03:12:10;;;;;;;12.90;11.00;;;;;;;8.18;100.00;96402.19;108128;1268;22522;-80
2022/09/20 03:14:47;;;;;;;15.40;10.70;;;;;;;8.19;100.00;96408.20;108164;1268;25380;-81
2022/09/20 03:17:24;;;;;;;12.60;11.30;;;;;;;8.21;100.00;96404.23;108059;1270;22536;-81
2022/09/20 03:20:11;;;;;;;14.90;12.40;;;;;;;8.21;100.00;96408.19;108057;1268;29610;-81
2022/09/20 03:22:55;;;;;;;14.20;12.70;;;;;;;8.20;100.00;96406.61;108143;1267;22548;-80
2022/09/20 03:25:39;;;;;;;13.80;11.80;;;;;;;8.19;100.00;96406.92;108139;1268;22715;-80
2022/09/20 03:28:23;;;;;;;14.90;13.30;;;;;;;8.16;100.00;96413.10;108091;1270;22572;-80
2022/09/20 03:31:05;;;;;;;16.10;14.50;;;;;;;8.14;100.00;96411.98;108130;1268;22714;-80
2022/09/20 03:33:47;;;;;;;13.00;11.60;;;;;;;8.12;100.00;96418.55;108152;1268;22708;-80
2022/09/20 03:36:39;;;;;;;11.20;10.00;;;;;;;8.11;100.00;96418.02;108073;1270;24388;-80
2022/09/20 03:39:30;;;;;;;13.30;11.20;;;;;;;8.09;100.00;96421.84;108016;1270;29138;-80
2022/09/20 03:42:18;;;;;;;14.80;13.20;;;;;;;8.09;100.00;96418.56;108094;1270;23822;-80
2022/09/20 03:45:08;;;;;;;17.40;15.60;;;;;;;8.08;100.00;96421.89;108160;1268;22897;-80
2022/09/20 03:47:57;;;;;;;13.90;12.20;;;;;;;8.06;100.00;96423.80;108132;1268;22549;-80
2022/09/20 03:50:45;;;;;;;14.70;13.10;;;;;;;8.05;100.00;96428.86;108123;1268;26502;-80
2022/09/20 03:53:52;;;;;;;15.60;14.00;;;;;;;8.04;100.00;96431.93;108059;1270;22582;-80
2022/09/20 03:56:45;;;;;;;16.20;14.60;;;;;;;8.04;100.00;96432.52;108066;1270;22576;-80
2022/09/20 03:59:29;;;;;;;16.60;14.90;;;;;;;8.04;100.00;96431.98;108043;1270;31379;-80
2022/09/20 04:02:34;;;;;;;16.60;15.00;;;;;;;8.03;100.00;96432.52;108138;1268;25557;-80
2022/09/20 04:05:11;;;;;;;16.00;14.40;;;;;;;8.02;100.00;96431.77;108062;1270;22556;-80
2022/09/20 04:07:54;;;;;;;15.20;13.60;;;;;;;8.03;100.00;96435.58;108129;1268;23846;-80
2022/09/20 04:10:41;;;;;;;13.50;12.10;;;;;;;8.03;100.00;96435.21;107982;1270;42713;-80
2022/09/20 04:13:36;;;;;;;15.40;13.70;;;;;;;8.03;100.00;96447.04;108074;1270;22550;-80
2022/09/20 04:16:19;;;;;;;14.10;12.20;;;;;;;8.02;100.00;96446.23;108211;1268;25373;-81
2022/09/20 04:18:56;;;;;;;13.30;11.40;;;;;;;8.04;100.00;96452.16;108079;1268;28005;-80
2022/09/20 04:21:34;;;;;;;12.60;11.30;;;;;;;8.07;100.00;96453.46;108132;1270;22567;-80
2022/09/20 04:24:13;;;;;;;14.90;12.60;;;;;;;8.09;100.00;96454.79;108115;1270;22549;-80
2022/09/20 04:26:51;;;;;;;13.10;11.70;;;;;;;8.10;100.00;96452.83;108181;1268;25956;-80
2022/09/20 04:29:32;;;;;;;15.10;12.70;;;;;;;8.11;100.00;96458.27;108114;1268;28819;-80
2022/09/20 04:32:14;;;;;;;13.90;12.40;;;;;;;8.11;100.00;96459.84;108170;1268;22532;-80
2022/09/20 04:37:47;;;;;;;13.30;11.90;;;;;;;8.11;100.00;96465.55;108156;1268;22558;-80
2022/09/20 04:40:31;;;;;;;12.90;11.60;;;;;;;8.12;100.00;96463.80;108003;1270;34814;-80
2022/09/20 04:43:35;;;;;;;14.10;12.50;;;;;;;8.13;100.00;96465.02;108091;1270;22560;-80
2022/09/20 04:46:34;;;;;;;13.40;12.00;;;;;;;8.13;100.00;96466.60;108159;1268;22531;-81
2022/09/20 04:49:33;;;;;;;12.90;10.80;;;;;;;8.13;100.00;96465.12;108077;1268;23155;-80
2022/09/20 04:52:44;;;;;;;13.20;11.90;;;;;;;8.14;100.00;96469.39;108076;1270;24975;-81
2022/09/20 04:55:49;;;;;;;14.00;12.50;;;;;;;8.13;100.00;96473.30;108175;1268;22551;-80
2022/09/20 04:59:04;;;;;;;14.30;12.80;;;;;;;8.13;100.00;96477.48;107992;1270;42020;-79
2022/09/20 05:02:12;;;;;;;15.20;13.00;;;;;;;8.12;100.00;96479.27;107808;1273;22555;-80
2022/09/20 05:05:34;;;;;;;15.10;13.50;;;;;;;8.11;100.00;96483.66;107933;1273;22572;-80
2022/09/20 05:08:38;;;;;;;16.10;14.20;;;;;;;8.11;100.00;96486.41;108103;1268;22613;-80
2022/09/20 05:11:31;;;;;;;14.70;13.10;;;;;;;8.11;100.00;96481.80;108173;1268;24306;-80
2022/09/20 05:14:23;;;;;;;12.90;11.60;;;;;;;8.10;100.00;96480.55;108136;1268;22631;-81
2022/09/20 05:17:19;;;;;;;13.00;11.70;;;;;;;8.11;100.00;96484.77;108109;1269;22538;-81
2022/09/20 05:20:15;;;;;;;14.10;12.60;;;;;;;8.11;100.00;96485.34;108073;1268;35592;-80
2022/09/20 05:23:10;;;;;;;14.30;12.80;;;;;;;8.11;100.00;96490.32;108135;1268;24045;-80
2022/09/20 05:25:58;;;;;;;14.10;12.60;;;;;;;8.10;100.00;96492.80;108157;1268;22541;-80
2022/09/20 05:28:39;;;;;;;12.70;11.40;;;;;;;8.10;100.00;96496.45;108054;1270;29985;-80
2022/09/20 05:31:19;;;;;;;14.00;12.40;;;;;;;8.11;100.00;96496.71;108205;1268;24262;-80
2022/09/20 05:33:58;;;;;;;14.60;13.10;;;;;;;8.12;100.00;96494.70;108152;1268;22582;-80
2022/09/20 05:36:41;;;;;;;14.90;12.40;;;;;;;8.13;100.00;96495.43;108093;1270;22549;-80
2022/09/20 05:39:28;;;;;;;14.00;11.70;;;;;;;8.14;100.00;96493.10;108046;1268;34884;-80
2022/09/20 05:42:09;;;;;;;15.90;13.40;;;;;;;8.15;100.00;96489.30;108106;1270;22903;-80
2022/09/20 05:44:58;;;;;;;14.20;12.70;;;;;;;8.15;100.00;96493.27;108151;1268;22541;-80
2022/09/20 05:47:40;;;;;;;15.90;14.30;;;;;;;8.17;100.00;96498.52;108136;1268;23334;-80
2022/09/20 05:50:30;;;;;;;15.60;14.00;;;;;;;8.18;100.00;96500.09;108056;1270;27665;-81
2022/09/20 05:53:25;;;;;;;14.00;12.60;;;;;;;8.20;100.00;96503.10;108151;1268;22629;-81
2022/09/20 05:56:07;;;;;;;14.10;11.10;;;;;;;8.21;100.00;96506.05;108143;1268;22530;-81
2022/09/20 05:58:53;;;;;;;13.90;11.60;;;;;;;8.20;100.00;96504.42;108151;1268;32070;-80
2022/09/20 06:01:31;;;;;;;12.70;11.40;;;;;;;8.19;100.00;96505.33;108192;1268;22574;-81
2022/09/20 06:04:16;;;;;;;13.10;11.80;;;;;;;8.19;100.00;96507.80;108149;1268;22507;-80
2022/09/20 06:07:00;;;;;;;13.60;12.20;;;;;;;8.20;100.00;96511.44;108067;1270;22904;-80
2022/09/20 06:10:15;;;;;;;13.00;11.70;;;;;;;8.22;100.00;96513.86;108018;1270;25988;-80
2022/09/20 06:12:56;;;;;;;13.70;12.40;;;;;;;8.26;100.00;96515.13;108127;1270;22557;-81
2022/09/20 06:15:34;;;;;;;14.00;12.70;;;;;;;8.28;100.00;96515.70;108146;1268;24235;-81
2022/09/20 06:18:19;;;;;;;16.20;14.60;;;;;;;8.29;100.00;96521.52;108125;1268;22703;-81
2022/09/20 06:21:05;;;;;;;11.90;10.30;;;;;;;8.29;100.00;96522.63;108152;1268;22550;-81
2022/09/20 06:23:37;;;;;;;9.80;7.30;;;;;;;8.29;100.00;96518.55;108192;1268;23925;-81
2022/09/20 06:26:16;;;;;;;8.30;7.40;;;;;;;8.26;100.00;96516.34;108094;1269;22529;-81
2022/09/20 06:28:51;;;;;;;11.80;10.60;;;;;;;8.19;100.00;96516.63;108087;1268;31117;-80
2022/09/20 06:31:22;;;;;;;13.20;12.00;;;;;;;8.18;100.00;96519.80;108078;1270;25245;-81
2022/09/20 06:33:58;;;;;;;13.80;12.40;;;;;;;8.19;100.00;96522.43;108111;1270;22658;-81
2022/09/20 06:42:26;;;;;;;12.60;11.40;;;;;;;8.27;100.00;96525.73;108199;1268;24262;-81
2022/09/20 06:44:58;;;;;;;12.50;11.20;;;;;;;8.27;100.00;96526.11;108119;1270;23421;-81
2022/09/20 06:47:29;;;;;;;13.50;11.50;;;;;;;8.28;100.00;96530.91;108071;1270;22535;-81
2022/09/20 06:50:01;;;;;;;13.30;11.90;;;;;;;8.31;100.00;96530.61;108083;1268;29135;-81
2022/09/20 06:52:32;;;;;;;13.10;11.80;;;;;;;8.33;100.00;96528.30;108157;1268;22590;-81
2022/09/20 06:55:07;;;;;;;12.40;10.00;;;;;;;8.37;100.00;96525.55;108101;1269;25094;-80
2022/09/20 06:57:39;;;;;;;12.50;10.40;;;;;;;8.40;100.00;96528.56;108175;1268;22751;-81
2022/09/20 07:00:15;;;;;;;11.60;9.90;;;;;;;8.46;100.00;96525.35;108113;1268;25836;-81
2022/09/20 07:02:47;;;;;;;12.20;10.10;;;;;;;8.48;100.00;96527.62;108143;1269;22524;-81
2022/09/20 07:05:25;;;;;;;12.40;10.30;;;;;;;8.49;100.00;96528.04;108157;1270;22861;-81
2022/09/20 07:08:00;;;;;;;12.60;10.70;;;;;;;8.53;100.00;96536.48;108156;1268;23930;-81
2022/09/20 07:10:31;;;;;;;12.20;10.90;;;;;;;8.56;100.00;96539.73;108035;1270;24633;-81
2022/09/20 07:13:03;;;;;;;12.50;11.00;;;;;;;8.58;100.00;96539.59;108162;1268;22834;-81
2022/09/20 07:15:37;;;;;;;11.80;9.40;;;;;;;8.60;100.00;96544.73;108056;1269;24240;-80
2022/09/20 07:18:09;;;;;;;12.00;10.20;;;;;;;8.59;100.00;96546.52;108158;1268;22544;-81
2022/09/20 07:20:41;;;;;;;10.60;9.50;;;;;;;8.63;100.00;96550.05;107990;1268;38301;-81
2022/09/20 07:23:14;;;;;;;11.60;10.00;;;;;;;8.70;100.00;96558.33;108160;1268;24265;-80
2022/09/20 07:25:46;;;;;;;12.40;10.60;;;;;;;8.75;100.00;96564.04;108115;1270;25210;-81
2022/09/20 07:28:19;;;;;;;10.40;9.00;;;;;;;8.76;100.00;96569.33;108100;1270;24230;-81
2022/09/20 07:30:50;;;;;;;12.10;10.00;;;;;;;8.73;100.00;96573.81;108091;1270;24157;-81
2022/09/20 07:33:23;;;;;;;13.00;10.10;;;;;;;8.70;100.00;96577.63;108176;1268;22630;-80
2022/09/20 07:35:55;;;;;;;11.90;9.90;;;;;;;8.69;100.00;96578.94;108089;1270;24230;-81
2022/09/20 07:38:27;;;;;;;11.90;10.40;;;;;;;8.59;100.00;96577.05;107995;1268;36398;-80
2022/09/20 07:41:01;;;;;;;12.80;11.30;;;;;;;8.50;100.00;96582.09;108197;1268;22651;-81
2022/09/20 07:43:32;;;;;;;12.20;10.90;;;;;;;8.46;100.00;96580.72;108138;1270;22568;-80
2022/09/20 07:46:03;;;;;;;13.10;10.20;;;;;;;8.46;100.00;96588.91;108181;1270;22627;-80
2022/09/20 07:48:36;;;;;;;13.20;11.70;;;;;;;8.42;100.00;96591.91;108132;1269;26327;-80
2022/09/20 07:51:10;;;;;;;13.20;11.40;;;;;;;8.36;100.00;96598.14;108158;1268;22569;-80
2022/09/20 07:53:42;;;;;;;12.80;11.00;;;;;;;8.30;100.00;96593.05;108173;1268;22530;-81
2022/09/20 07:56:15;;;;;;;12.60;10.90;;;;;;;8.28;100.00;96594.30;108194;1269;22546;-81
2022/09/20 07:58:46;;;;;;;11.80;9.90;;;;;;;8.29;100.00;96591.87;108124;1270;30053;-80
2022/09/20 08:01:21;;;;;;;12.40;9.80;;;;;;;8.30;100.00;96596.84;108184;1268;23076;-81
2022/09/20 08:03:53;;;;;;;13.70;11.60;;;;;;;8.35;100.00;96603.27;108205;1268;22536;-80
2022/09/20 08:06:25;;;;;;;11.50;10.30;;;;;;;8.43;100.00;96607.91;108176;1268;22532;-81
2022/09/20 08:08:57;;;;;;;11.20;10.10;;;;;;;8.55;100.00;96607.82;108132;1268;26271;-81
2022/09/20 08:11:29;;;;;;;13.70;10.90;;;;;;;8.72;100.00;96608.28;108245;1268;22617;-81
2022/09/20 08:14:01;;;;;;;10.20;9.10;;;;;;;8.87;100.00;96609.31;108224;1270;22602;-81
2022/09/20 08:16:39;;;;;;;10.20;8.70;;;;;;;9.10;100.00;96610.07;108141;1270;24246;-81
2022/09/20 08:19:14;;;;;;;9.40;8.40;;;;;;;9.27;100.00;96612.08;108106;1268;31081;-80
2022/09/20 08:21:45;;;;;;;9.20;8.10;;;;;;;9.28;100.00;96610.65;108090;1270;22542;-80
2022/09/20 08:24:17;;;;;;;10.60;9.00;;;;;;;9.21;100.00;96606.61;108101;1268;22644;-81
2022/09/20 08:26:49;;;;;;;12.50;9.80;;;;;;;9.20;100.00;96612.80;108117;1270;24027;-80
2022/09/20 08:29:20;;;;;;;10.30;9.20;;;;;;;9.38;100.00;96614.27;108158;1268;25551;-80
2022/09/20 08:31:56;;;;;;;11.80;8.90;;;;;;;9.52;100.00;96612.32;108169;1268;22559;-81
2022/09/20 08:34:28;;;;;;;11.00;9.00;;;;;;;9.58;100.00;96610.30;108162;1268;22533;-81
2022/09/20 08:36:59;;;;;;;9.10;7.90;;;;;;;9.66;99.66;96612.04;108193;1268;22519;-81
2022/09/20 08:39:30;;;;;;;8.70;7.80;;;;;;;10.25;99.91;96611.17;108053;1270;28208;-81
2022/09/20 08:42:11;;;;;;;7.90;6.30;;;;;;;12.28;99.62;96605.34;108210;1268;25241;-80
2022/09/20 08:44:51;;;;;;;8.30;5.40;;;;;;;13.62;92.24;96608.37;108151;1268;22555;-80
2022/09/20 08:47:26;;;;;;;6.60;5.40;;;;;;;13.80;85.09;96611.22;108140;1268;24369;-81
2022/09/20 08:49:57;;;;;;;7.30;6.60;;;;;;;13.12;81.01;96613.20;108093;1267;29470;-80
2022/09/20 08:52:34;;;;;;;6.20;4.70;;;;;;;12.04;81.68;96615.11;108109;1270;24223;-80
2022/09/20 08:55:13;;;;;;;6.80;5.90;;;;;;;11.26;82.60;96616.86;108168;1268;23840;-80
2022/09/20 08:57:48;;;;;;;7.00;6.10;;;;;;;11.23;85.08;96613.38;108205;1268;22548;-80
2022/09/20 09:00:23;;;;;;;5.90;5.00;;;;;;;11.93;86.76;96610.98;108109;1268;29226;-79
2022/09/20 09:02:57;;;;;;;7.40;6.60;;;;;;;12.16;84.82;96613.38;108197;1268;22571;-80
2022/09/20 09:05:34;;;;;;;6.10;5.20;;;;;;;12.17;84.21;96620.64;108116;1270;23224;-79
2022/09/20 09:08:15;;;;;;;5.30;4.40;;;;;;;11.96;83.16;96615.98;108155;1268;22561;-79
2022/09/20 09:10:45;;;;;;;;;;;;;;;11.86;82.88;96620.27;108136;1270;22935;-79
2022/09/20 09:13:29;;;;;;;5.50;5.00;;;;;;;11.80;83.51;96618.73;108191;1268;22567;-80
2022/09/20 09:16:06;;;;;;;5.90;5.30;;;;;;;12.06;84.38;96622.29;108117;1270;22695;-81
2022/09/20 09:18:41;;;;;;;6.10;5.40;;;;;;;12.14;82.43;96616.80;108118;1268;26036;-80
2022/09/20 09:21:20;;;;;;;5.80;5.20;;;;;;;12.09;81.72;96619.64;108162;1268;22648;-80
2022/09/20 09:24:03;;;;;;;6.00;5.40;;;;;;;12.26;83.46;96621.00;108174;1268;22539;-80
2022/09/20 09:26:39;;;;;;;6.80;5.00;;;;;;;12.62;81.76;96621.40;108184;1268;22552;-79
2022/09/20 09:29:19;;;;;;;5.50;4.90;;;;;;;12.36;79.45;96623.61;108128;1268;26165;-80
2022/09/20 09:31:53;;;;;;;6.40;5.10;;;;;;;12.06;78.90;96626.02;108129;1268;22656;-80
2022/09/20 09:34:33;;;;;;;5.70;5.10;;;;;;;11.86;79.28;96623.83;108139;1268;22601;-80
2022/09/20 09:37:21;;;;;;;5.70;4.70;;;;;;;11.74;79.16;96624.80;108167;1268;22570;-80
2022/09/20 09:40:10;;;;;;;4.90;4.50;;;;;;;11.69;79.62;96626.73;107981;1270;38725;-80
2022/09/20 09:42:50;;;;;;;6.10;4.90;;;;;;;11.58;79.23;96626.06;108113;1270;22565;-80
2022/09/20 09:45:30;;;;;;;5.60;5.00;;;;;;;11.52;78.88;96623.62;108089;1270;22573;-80
2022/09/20 09:48:03;;;;;;;7.00;5.40;;;;;;;11.49;79.53;96624.94;108076;1270;22536;-80
2022/09/20 09:50:38;;;;;;;6.70;5.40;;;;;;;11.51;78.91;96623.75;108107;1268;31101;-80
2022/09/20 09:53:14;;;;;;;5.80;5.20;;;;;;;11.16;78.27;96625.03;108086;1270;25364;-80
2022/09/20 09:56:01;;;;;;;6.50;5.10;;;;;;;10.76;78.93;96625.61;108172;1268;25251;-80
2022/09/20 09:58:46;;;;;;;5.90;4.90;;;;;;;10.53;79.31;96619.86;108118;1268;30757;-80
2022/09/20 10:01:27;;;;;;;5.80;5.30;;;;;;;10.44;80.07;96615.92;108154;1268;22556;-80
2022/09/20 10:04:06;;;;;;;6.00;5.40;;;;;;;10.71;81.10;96615.21;108168;1268;22536;-80
2022/09/20 10:06:48;;;;;;;4.60;4.10;;;;;;;10.93;80.28;96612.52;108171;1268;22563;-80
2022/09/20 10:09:29;;;;;;;4.90;4.50;;;;;;;11.09;80.00;96606.17;108081;1268;29594;-80
2022/09/20 10:12:20;;;;;;;5.50;4.90;;;;;;;11.32;80.16;96605.33;108097;1268;24266;-80
2022/09/20 10:15:07;;;;;;;5.20;4.30;;;;;;;11.57;79.66;96602.92;108117;1270;22618;-80
2022/09/20 10:17:52;;;;;;;5.90;5.30;;;;;;;11.66;78.68;96600.95;108137;1268;24250;-80
2022/09/20 10:20:39;;;;;;;5.20;4.50;;;;;;;11.87;78.64;96598.95;108088;1268;31636;-80
2022/09/20 10:23:27;;;;;;;5.70;5.20;;;;;;;12.03;77.07;96600.80;108091;1270;22556;-80
2022/09/20 10:26:06;;;;;;;3.50;3.20;;;;;;;12.14;75.73;96599.39;108179;1268;22542;-81
2022/09/20 10:28:49;;;;;;;3.30;3.00;;;;;;;12.26;74.23;96600.48;108134;1268;26629;-80
2022/09/20 10:31:36;;;;;;;3.90;3.00;;;;;;;12.43;73.32;96595.11;108099;1270;22560;-81
2022/09/20 10:34:27;;;;;;;4.20;3.70;;;;;;;12.66;73.62;96597.45;108144;1268;22530;-80
2022/09/20 10:37:00;;;;;;;3.80;3.40;;;;;;;12.84;72.40;96594.34;108152;1268;25286;-80
2022/09/20 10:39:36;;;;;;;4.80;3.60;;;;;;;12.85;71.96;96586.77;108038;1268;30237;-81
2022/09/20 10:45:26;;;;;;;5.00;3.30;;;;;;;13.14;74.22;96589.17;108152;1268;24271;-81
2022/09/20 10:48:06;;;;;;;4.60;3.90;;;;;;;12.98;71.98;96591.48;108182;1268;23313;-81
2022/09/20 10:50:47;;;;;;;4.00;3.30;;;;;;;12.75;71.03;96589.48;108042;1270;24749;-81
2022/09/20 10:53:37;;;;;;;3.80;3.30;;;;;;;12.62;71.26;96590.27;108151;1268;22911;-81
2022/09/20 10:56:22;;;;;;;4.30;3.70;;;;;;;12.73;71.91;96590.73;108166;1268;22728;-81
2022/09/20 10:59:19;;;;;;;4.00;3.60;;;;;;;12.88;72.95;96594.95;108005;1270;34742;-81
2022/09/20 11:02:04;;;;;;;6.30;3.80;;;;;;;13.02;73.70;96597.41;108135;1268;22538;-81
2022/09/20 11:04:53;;;;;;;3.40;3.10;;;;;;;13.01;71.54;96598.02;108142;1268;22556;-81
2022/09/20 11:07:36;;;;;;;3.70;3.30;;;;;;;12.83;71.61;96596.11;108128;1270;22545;-81
2022/09/20 11:10:19;;;;;;;3.40;3.10;;;;;;;12.92;72.31;96592.76;108111;1268;28770;-81
2022/09/20 11:12:55;;;;;;;4.90;3.30;;;;;;;12.98;70.37;96594.83;108136;1268;23616;-81
2022/09/20 11:15:31;;;;;;;4.60;3.90;;;;;;;12.84;71.20;96596.59;108107;1270;22635;-81
2022/09/20 11:18:11;;;;;;;5.40;4.00;;;;;;;12.93;72.13;96604.13;108142;1268;22686;-81
2022/09/20 11:20:47;;;;;;;5.90;4.10;;;;;;;12.70;72.15;96603.24;108086;1268;30483;-81
2022/09/20 11:23:24;;;;;;;4.80;3.50;;;;;;;12.52;73.01;96609.59;108106;1268;22561;-81
2022/09/20 11:26:00;;;;;;;4.30;3.70;;;;;;;12.10;72.94;96615.10;108075;1270;23406;-80
2022/09/20 11:28:37;;;;;;;3.00;2.70;;;;;;;11.58;73.97;96622.02;108114;1268;25635;-80
2022/09/20 11:31:16;;;;;;;2.60;1.90;;;;;;;11.28;74.25;96623.00;108155;1268;22528;-81
2022/09/20 11:33:51;;;;;;;3.20;2.20;;;;;;;10.95;74.02;96624.55;108178;1268;22836;-81
2022/09/20 11:36:27;;;;;;;3.20;2.30;;;;;;;10.78;74.81;96628.68;108153;1268;22527;-81
2022/09/20 11:39:03;;;;;;;2.10;1.90;;;;;;;10.71;74.21;96632.81;108082;1268;30361;-80
2022/09/20 11:41:36;;;;;;;2.20;1.90;;;;;;;10.71;74.42;96638.11;108112;1270;23845;-81
2022/09/20 11:44:12;;;;;;;2.80;2.60;;;;;;;10.94;75.20;96632.40;108194;1268;22770;-81
2022/09/20 11:46:47;;;;;;;3.00;2.40;;;;;;;11.44;76.21;96631.73;108117;1268;22536;-80
2022/09/20 11:49:24;;;;;;;2.40;2.10;;;;;;;11.87;75.79;96626.58;108101;1268;34859;-80
2022/09/20 11:52:21;;;;;;;3.20;2.50;;;;;;;11.89;74.13;96630.69;108142;1268;22618;-81
2022/09/20 11:55:18;;;;;;;4.30;3.60;;;;;;;11.87;74.06;96627.21;108136;1268;24273;-81
2022/09/20 11:58:06;;;;;;;3.30;2.90;;;;;;;11.65;73.20;96632.02;108162;1268;24204;-81
2022/09/20 12:00:41;;;;;;;6.50;4.50;;;;;;;11.59;73.93;96642.66;108089;1268;31908;-81
2022/09/20 12:03:28;;;;;;;5.60;4.60;;;;;;;11.58;74.18;96640.09;108127;1270;23829;-81
2022/09/20 12:06:02;;;;;;;6.00;4.70;;;;;;;11.62;74.48;96639.60;108159;1270;22535;-82
2022/09/20 12:08:36;;;;;;;5.80;5.00;;;;;;;11.83;75.64;96637.40;108045;1270;29000;-81
2022/09/20 12:11:10;;;;;;;5.10;4.60;;;;;;;12.20;76.07;96633.90;108125;1269;25369;-82
2022/09/20 12:13:43;;;;;;;5.30;4.40;;;;;;;12.56;76.14;96630.02;108159;1268;22548;-82
2022/09/20 12:16:35;;;;;;;5.50;4.60;;;;;;;12.74;74.99;96625.93;108120;1269;22927;-82
2022/09/20 12:19:08;;;;;;;5.50;4.90;;;;;;;12.86;74.58;96625.60;108114;1268;26279;-82
2022/09/20 12:22:13;;;;;;;5.20;4.70;;;;;;;12.84;74.39;96626.70;108138;1270;22530;-82
2022/09/20 12:24:44;;;;;;;5.10;4.60;;;;;;;12.68;73.97;96624.83;108139;1270;22654;-82
2022/09/20 12:27:57;;;;;;;5.50;5.00;;;;;;;12.57;73.71;96622.33;108152;1268;22514;-82
2022/09/20 12:30:32;;;;;;;5.50;4.60;;;;;;;12.42;73.68;96626.77;108109;1268;26838;-82
2022/09/20 12:33:04;;;;;;;4.70;4.20;;;;;;;12.35;73.28;96624.95;108106;1270;22530;-82
2022/09/20 12:36:14;;;;;;;6.40;4.50;;;;;;;12.26;73.60;96621.44;108147;1270;23793;-82